sensor_id;sensor_type;location;lat;lon;timestamp;pressure;altitude;pressure_sealevel;temperature;humidity
57442;BME280;43284;47.042;15.498;2023-08-20T00:00:14;97527.84;;;19.63;100.00
57442;BME280;43284;47.042;15.498;2023-08-20T00:02:43;97530.03;;;19.58;100.00
57442;BME280;43284;47.042;15.498;2023-08-20T00:05:11;97523.78;;;19.59;100.00
57442;BME280;43284;47.042;15.498;2023-08-20T00:07:37;97518.81;;;19.43;100.00
57442;BME280;43284;47.042;15.498;2023-08-20T00:10:02;97515.22;;;19.44;100.00
57442;BME280;43284;47.042;15.498;2023-08-20T00:12:30;97521.34;;;19.45;100.00
57442;BME280;43284;47.042;15.498;2023-08-20T00:15:00;97515.22;;;19.44;100.00
57442;BME280;43284;47.042;15.498;2023-08-20T00:17:36;97509.78;;;19.46;100.00
57442;BME280;43284;47.042;15.498;2023-08-20T00:20:03;97516.06;;;19.45;100.00
57442;BME280;43284;47.042;15.498;2023-08-20T00:22:39;97518.72;;;19.45;100.00
57442;BME280;43284;47.042;15.498;2023-08-20T00:25:05;97515.22;;;19.44;100.00
57442;BME280;43284;47.042;15.498;2023-08-20T00:27:32;97520.53;;;19.44;100.00
57442;BME280;43284;47.042;15.498;2023-08-20T00:29:57;97521.34;;;19.45;100.00
57442;BME280;43284;47.042;15.498;2023-08-20T00:32:23;97523.19;;;19.44;100.00
57442;BME280;43284;47.042;15.498;2023-08-20T00:34:49;97517.97;;;19.43;100.00
57442;BME280;43284;47.042;15.498;2023-08-20T00:37:14;97522.31;;;19.44;100.00
57442;BME280;43284;47.042;15.498;2023-08-20T00:39:40;97518.97;;;19.42;100.00
57442;BME280;43284;47.042;15.498;2023-08-20T00:42:06;97518.09;;;19.41;100.00
57442;BME280;43284;47.042;15.498;2023-08-20T00:44:33;97517.16;;;19.42;100.00
57442;BME280;43284;47.042;15.498;2023-08-20T00:46:59;97515.22;;;19.44;100.00
57442;BME280;43284;47.042;15.498;2023-08-20T00:49:25;97515.94;;;19.46;100.00
57442;BME280;43284;47.042;15.498;2023-08-20T00:51:52;97517.38;;;19.39;100.00
57442;BME280;43284;47.042;15.498;2023-08-20T00:54:20;97517.50;;;19.38;100.00
57442;BME280;43284;47.042;15.498;2023-08-20T00:56:46;97515.94;;;19.35;100.00
57442;BME280;43284;47.042;15.498;2023-08-20T00:59:13;97520.84;;;19.28;100.00
57442;BME280;43284;47.042;15.498;2023-08-20T01:01:39;97518.22;;;19.28;100.00
57442;BME280;43284;47.042;15.498;2023-08-20T01:04:04;97514.00;;;19.26;100.00
57442;BME280;43284;47.042;15.498;2023-08-20T01:12:02;97523.41;;;19.19;100.00
57442;BME280;43284;47.042;15.498;2023-08-20T01:14:28;97523.50;;;19.17;100.00
57442;BME280;43284;47.042;15.498;2023-08-20T01:16:54;97526.63;;;19.11;100.00
57442;BME280;43284;47.042;15.498;2023-08-20T01:19:21;97535.44;;;19.11;100.00
57442;BME280;43284;47.042;15.498;2023-08-20T01:30:10;97534.09;;;19.06;100.00
57442;BME280;43284;47.042;15.498;2023-08-20T01:32:38;97535.19;;;19.03;100.00
57442;BME280;43284;47.042;15.498;2023-08-20T01:35:17;97537.00;;;19.03;100.00
57442;BME280;43284;47.042;15.498;2023-08-20T01:37:43;97538.09;;;19.00;100.00
57442;BME280;43284;47.042;15.498;2023-08-20T01:40:09;97539.13;;;18.98;100.00
57442;BME280;43284;47.042;15.498;2023-08-20T01:42:39;97530.59;;;18.94;100.00
57442;BME280;43284;47.042;15.498;2023-08-20T01:45:05;97534.44;;;18.90;100.00
57442;BME280;43284;47.042;15.498;2023-08-20T01:47:31;97535.16;;;18.92;100.00
57442;BME280;43284;47.042;15.498;2023-08-20T01:49:57;97534.66;;;18.87;100.00
57442;BME280;43284;47.042;15.498;2023-08-20T01:52:23;97533.97;;;18.85;100.00
57442;BME280;43284;47.042;15.498;2023-08-20T01:54:49;97534.06;;;18.83;100.00
57442;BME280;43284;47.042;15.498;2023-08-20T01:57:15;97530.44;;;18.84;100.00
57442;BME280;43284;47.042;15.498;2023-08-20T01:59:40;97525.88;;;18.86;100.00
57442;BME280;43284;47.042;15.498;2023-08-20T02:02:06;97530.22;;;18.87;100.00
57442;BME280;43284;47.042;15.498;2023-08-20T02:04:32;97526.72;;;18.87;100.00
57442;BME280;43284;47.042;15.498;2023-08-20T02:06:58;97519.63;;;18.87;100.00
57442;BME280;43284;47.042;15.498;2023-08-20T02:09:23;97521.31;;;18.88;100.00
57442;BME280;43284;47.042;15.498;2023-08-20T02:11:50;97517.94;;;18.86;100.00
57442;BME280;43284;47.042;15.498;2023-08-20T02:14:16;97522.50;;;18.84;100.00
57442;BME280;43284;47.042;15.498;2023-08-20T02:16:42;97511.06;;;18.84;100.00
57442;BME280;43284;47.042;15.498;2023-08-20T02:19:08;97515.75;;;18.80;100.00
57442;BME280;43284;47.042;15.498;2023-08-20T02:21:33;97514.94;;;18.56;100.00
57442;BME280;43284;47.042;15.498;2023-08-20T02:23:59;97514.81;;;18.57;100.00
57442;BME280;43284;47.042;15.498;2023-08-20T02:26:24;97517.56;;;18.56;100.00
57442;BME280;43284;47.042;15.498;2023-08-20T02:28:50;97516.63;;;18.57;100.00
57442;BME280;43284;47.042;15.498;2023-08-20T02:31:15;97509.41;;;18.59;100.00
57442;BME280;43284;47.042;15.498;2023-08-20T02:33:41;97503.25;;;18.58;100.00
57442;BME280;43284;47.042;15.498;2023-08-20T02:36:06;97505.06;;;18.58;100.00
57442;BME280;43284;47.042;15.498;2023-08-20T02:38:32;97507.00;;;18.56;100.00
57442;BME280;43284;47.042;15.498;2023-08-20T02:40:58;97516.31;;;18.37;100.00
57442;BME280;43284;47.042;15.498;2023-08-20T02:43:23;97520.59;;;18.27;100.00
57442;BME280;43284;47.042;15.498;2023-08-20T02:45:49;97522.50;;;18.25;100.00
57442;BME280;43284;47.042;15.498;2023-08-20T02:48:14;97528.78;;;18.24;100.00
57442;BME280;43284;47.042;15.498;2023-08-20T02:50:40;97522.63;;;18.23;100.00
57442;BME280;43284;47.042;15.498;2023-08-20T02:53:06;97525.50;;;18.20;100.00
57442;BME280;43284;47.042;15.498;2023-08-20T02:55:33;97525.50;;;18.20;100.00
57442;BME280;43284;47.042;15.498;2023-08-20T02:57:58;97521.88;;;18.21;100.00
57442;BME280;43284;47.042;15.498;2023-08-20T03:00:24;97518.31;;;18.22;100.00
57442;BME280;43284;47.042;15.498;2023-08-20T03:02:50;97531.28;;;18.25;100.00
57442;BME280;43284;47.042;15.498;2023-08-20T03:05:16;97524.09;;;18.27;100.00
57442;BME280;43284;47.042;15.498;2023-08-20T03:07:41;97532.16;;;18.26;100.00
57442;BME280;43284;47.042;15.498;2023-08-20T03:10:07;97534.28;;;18.21;100.00
57442;BME280;43284;47.042;15.498;2023-08-20T03:12:33;97526.34;;;18.21;100.00
57442;BME280;43284;47.042;15.498;2023-08-20T03:14:59;97525.50;;;18.20;100.00
57442;BME280;43284;47.042;15.498;2023-08-20T03:17:25;97526.59;;;18.18;100.00
57442;BME280;43284;47.042;15.498;2023-08-20T03:19:55;97523.94;;;18.18;100.00
57442;BME280;43284;47.042;15.498;2023-08-20T03:22:22;97525.50;;;18.20;100.00
57442;BME280;43284;47.042;15.498;2023-08-20T03:24:47;97528.03;;;18.22;100.00
57442;BME280;43284;47.042;15.498;2023-08-20T03:27:13;97534.06;;;18.24;100.00
57442;BME280;43284;47.042;15.498;2023-08-20T03:29:38;97525.78;;;18.28;100.00
57442;BME280;43284;47.042;15.498;2023-08-20T03:32:04;97529.72;;;18.23;100.00
57442;BME280;43284;47.042;15.498;2023-08-20T03:34:29;97529.22;;;18.18;100.00
57442;BME280;43284;47.042;15.498;2023-08-20T03:36:55;97528.53;;;18.03;100.00
57442;BME280;43284;47.042;15.498;2023-08-20T03:39:21;97523.69;;;17.97;100.00
57442;BME280;43284;47.042;15.498;2023-08-20T03:41:46;97531.75;;;17.95;100.00
57442;BME280;43284;47.042;15.498;2023-08-20T03:44:12;97538.00;;;17.94;100.00
57442;BME280;43284;47.042;15.498;2023-08-20T03:46:37;97537.25;;;17.92;100.00
57442;BME280;43284;47.042;15.498;2023-08-20T03:49:03;97535.91;;;17.86;100.00
57442;BME280;43284;47.042;15.498;2023-08-20T03:51:28;97537.81;;;17.84;100.00
57442;BME280;43284;47.042;15.498;2023-08-20T03:53:54;97542.56;;;17.66;100.00
57442;BME280;43284;47.042;15.498;2023-08-20T03:56:19;97548.59;;;17.68;100.00
57442;BME280;43284;47.042;15.498;2023-08-20T03:58:45;97551.47;;;17.65;100.00
57442;BME280;43284;47.042;15.498;2023-08-20T04:01:10;97555.06;;;17.64;100.00
57442;BME280;43284;47.042;15.498;2023-08-20T04:03:36;97550.09;;;17.60;100.00
57442;BME280;43284;47.042;15.498;2023-08-20T04:06:02;97557.19;;;17.59;100.00
57442;BME280;43284;47.042;15.498;2023-08-20T04:08:29;97553.72;;;17.59;100.00
57442;BME280;43284;47.042;15.498;2023-08-20T04:10:54;97552.88;;;17.58;100.00
57442;BME280;43284;47.042;15.498;2023-08-20T04:13:20;97553.72;;;17.59;100.00
57442;BME280;43284;47.042;15.498;2023-08-20T04:15:46;97559.75;;;17.61;100.00
57442;BME280;43284;47.042;15.498;2023-08-20T04:18:11;97563.31;;;17.60;100.00
57442;BME280;43284;47.042;15.498;2023-08-20T04:20:37;97560.06;;;17.56;100.00
57442;BME280;43284;47.042;15.498;2023-08-20T04:23:02;97570.50;;;17.58;100.00
57442;BME280;43284;47.042;15.498;2023-08-20T04:25:28;97559.94;;;17.58;100.00
57442;BME280;43284;47.042;15.498;2023-08-20T04:27:53;97569.66;;;17.57;100.00
57442;BME280;43284;47.042;15.498;2023-08-20T04:30:19;97566.09;;;17.58;100.00
57442;BME280;43284;47.042;15.498;2023-08-20T04:32:45;97562.47;;;17.59;100.00
57442;BME280;43284;47.042;15.498;2023-08-20T04:35:10;97563.94;;;17.63;100.00
57442;BME280;43284;47.042;15.498;2023-08-20T04:37:36;97564.78;;;17.64;100.00
57442;BME280;43284;47.042;15.498;2023-08-20T04:40:02;97566.38;;;17.66;100.00
57442;BME280;43284;47.042;15.498;2023-08-20T04:42:31;97565.34;;;17.69;100.00
57442;BME280;43284;47.042;15.498;2023-08-20T04:44:56;97564.38;;;17.70;100.00
57442;BME280;43284;47.042;15.498;2023-08-20T04:47:22;97559.91;;;17.70;100.00
57442;BME280;43284;47.042;15.498;2023-08-20T04:49:47;97564.13;;;17.73;100.00
57442;BME280;43284;47.042;15.498;2023-08-20T04:52:13;97569.22;;;17.76;100.00
57442;BME280;43284;47.042;15.498;2023-08-20T04:54:38;97572.31;;;17.83;100.00
57442;BME280;43284;47.042;15.498;2023-08-20T04:57:06;97571.22;;;17.85;100.00
57442;BME280;43284;47.042;15.498;2023-08-20T04:59:31;97565.63;;;17.90;100.00
57442;BME280;43284;47.042;15.498;2023-08-20T05:01:57;97571.44;;;17.95;100.00
57442;BME280;43284;47.042;15.498;2023-08-20T05:04:23;97574.78;;;17.97;100.00
57442;BME280;43284;47.042;15.498;2023-08-20T05:06:48;97575.44;;;18.01;100.00
57442;BME280;43284;47.042;15.498;2023-08-20T05:09:14;97574.25;;;18.05;100.00
57442;BME280;43284;47.042;15.498;2023-08-20T05:11:41;97589.06;;;18.07;100.00
57442;BME280;43284;47.042;15.498;2023-08-20T05:14:06;97593.16;;;18.11;100.00
57442;BME280;43284;47.042;15.498;2023-08-20T05:16:32;97598.34;;;18.13;100.00
57442;BME280;43284;47.042;15.498;2023-08-20T05:18:57;97593.66;;;18.17;100.00
57442;BME280;43284;47.042;15.498;2023-08-20T05:21:23;97591.66;;;18.20;100.00
57442;BME280;43284;47.042;15.498;2023-08-20T05:23:48;97595.88;;;18.23;100.00
57442;BME280;43284;47.042;15.498;2023-08-20T05:26:14;97594.06;;;18.23;100.00
57442;BME280;43284;47.042;15.498;2023-08-20T05:28:39;97602.88;;;18.24;100.00
57442;BME280;43284;47.042;15.498;2023-08-20T05:31:05;97605.38;;;18.25;100.00
57442;BME280;43284;47.042;15.498;2023-08-20T05:33:30;97606.03;;;18.29;100.00
57442;BME280;43284;47.042;15.498;2023-08-20T05:35:56;97611.22;;;18.30;100.00
57442;BME280;43284;47.042;15.498;2023-08-20T05:38:21;97610.78;;;18.37;100.00
57442;BME280;43284;47.042;15.498;2023-08-20T05:40:49;97605.34;;;18.38;100.00
57442;BME280;43284;47.042;15.498;2023-08-20T05:43:15;97615.50;;;18.44;100.00
57442;BME280;43284;47.042;15.498;2023-08-20T05:45:40;97619.38;;;18.51;100.00
57442;BME280;43284;47.042;15.498;2023-08-20T05:48:06;97622.53;;;18.57;100.00
57442;BME280;43284;47.042;15.498;2023-08-20T05:50:31;97623.88;;;18.62;100.00
57442;BME280;43284;47.042;15.498;2023-08-20T05:52:57;97629.47;;;18.70;100.00
57442;BME280;43284;47.042;15.498;2023-08-20T05:55:23;97629.44;;;18.83;100.00
57442;BME280;43284;47.042;15.498;2023-08-20T05:57:48;97633.31;;;18.90;100.00
57442;BME280;43284;47.042;15.498;2023-08-20T06:00:14;97628.50;;;18.96;100.00
57442;BME280;43284;47.042;15.498;2023-08-20T06:02:41;97634.31;;;19.01;100.00
57442;BME280;43284;47.042;15.498;2023-08-20T06:05:06;97642.53;;;19.09;100.00
57442;BME280;43284;47.042;15.498;2023-08-20T06:07:33;97642.66;;;19.19;100.00
57442;BME280;43284;47.042;15.498;2023-08-20T06:09:58;97644.97;;;19.34;100.00
57442;BME280;43284;47.042;15.498;2023-08-20T06:12:24;97648.88;;;19.42;100.00
57442;BME280;43284;47.042;15.498;2023-08-20T06:14:49;97647.78;;;19.44;100.00
57442;BME280;43284;47.042;15.498;2023-08-20T06:17:15;97648.28;;;19.49;100.00
57442;BME280;43284;47.042;15.498;2023-08-20T06:19:41;97651.41;;;19.54;100.00
57442;BME280;43284;47.042;15.498;2023-08-20T06:22:06;97660.72;;;19.60;100.00
57442;BME280;43284;47.042;15.498;2023-08-20T06:24:32;97660.25;;;19.66;100.00
57442;BME280;43284;47.042;15.498;2023-08-20T06:26:58;97661.59;;;19.72;100.00
57442;BME280;43284;47.042;15.498;2023-08-20T06:29:23;97663.88;;;19.76;100.00
57442;BME280;43284;47.042;15.498;2023-08-20T06:31:49;97663.53;;;19.81;100.00
57442;BME280;43284;47.042;15.498;2023-08-20T06:34:15;97663.41;;;19.94;100.00
57442;BME280;43284;47.042;15.498;2023-08-20T06:36:41;97659.78;;;20.06;100.00
57442;BME280;43284;47.042;15.498;2023-08-20T06:39:06;97661.59;;;20.17;100.00
57442;BME280;43284;47.042;15.498;2023-08-20T06:41:32;97656.03;;;20.20;100.00
57442;BME280;43284;47.042;15.498;2023-08-20T06:43:57;97664.00;;;20.31;100.00
57442;BME280;43284;47.042;15.498;2023-08-20T06:46:23;97663.72;;;20.46;100.00
57442;BME280;43284;47.042;15.498;2023-08-20T06:48:49;97659.28;;;20.57;100.00
57442;BME280;43284;47.042;15.498;2023-08-20T06:51:15;97656.19;;;20.73;100.00
57442;BME280;43284;47.042;15.498;2023-08-20T06:53:41;97658.47;;;20.78;100.00
57442;BME280;43284;47.042;15.498;2023-08-20T06:56:10;97663.34;;;20.94;100.00
57442;BME280;43284;47.042;15.498;2023-08-20T06:58:37;97669.16;;;21.20;100.00
57442;BME280;43284;47.042;15.498;2023-08-20T07:01:03;97662.19;;;21.19;100.00
57442;BME280;43284;47.042;15.498;2023-08-20T07:03:41;97675.09;;;21.24;100.00
57442;BME280;43284;47.042;15.498;2023-08-20T07:06:08;97667.44;;;21.30;100.00
57442;BME280;43284;47.042;15.498;2023-08-20T07:08:35;97676.22;;;21.42;100.00
57442;BME280;43284;47.042;15.498;2023-08-20T07:11:00;97675.25;;;21.43;100.00
57442;BME280;43284;47.042;15.498;2023-08-20T07:13:26;97672.91;;;21.50;100.00
57442;BME280;43284;47.042;15.498;2023-08-20T07:15:52;97675.50;;;21.61;100.00
57442;BME280;43284;47.042;15.498;2023-08-20T07:18:17;97673.88;;;21.70;100.00
57442;BME280;43284;47.042;15.498;2023-08-20T07:20:43;97674.91;;;21.78;100.00
57442;BME280;43284;47.042;15.498;2023-08-20T07:23:10;97677.06;;;21.94;100.00
57442;BME280;43284;47.042;15.498;2023-08-20T07:25:40;97669.69;;;22.08;96.53
57442;BME280;43284;47.042;15.498;2023-08-20T07:28:06;97664.03;;;22.22;99.16
57442;BME280;43284;47.042;15.498;2023-08-20T07:30:32;97666.53;;;22.24;95.44
57442;BME280;43284;47.042;15.498;2023-08-20T07:32:58;97668.13;;;22.36;94.06
57442;BME280;43284;47.042;15.498;2023-08-20T07:35:24;97667.84;;;22.39;93.62
57442;BME280;43284;47.042;15.498;2023-08-20T07:37:49;97670.97;;;22.54;97.70
57442;BME280;43284;47.042;15.498;2023-08-20T07:40:15;97671.97;;;22.62;96.41
57442;BME280;43284;47.042;15.498;2023-08-20T07:42:40;97659.38;;;22.65;94.48
57442;BME280;43284;47.042;15.498;2023-08-20T07:45:07;97660.19;;;22.65;93.13
57442;BME280;43284;47.042;15.498;2023-08-20T07:47:33;97658.94;;;22.69;93.51
57442;BME280;43284;47.042;15.498;2023-08-20T07:49:59;97660.50;;;22.81;93.64
57442;BME280;43284;47.042;15.498;2023-08-20T07:52:25;97656.16;;;22.90;89.69
57442;BME280;43284;47.042;15.498;2023-08-20T07:54:50;97662.66;;;23.07;89.27
57442;BME280;43284;47.042;15.498;2023-08-20T07:57:16;97658.44;;;23.14;88.48
57442;BME280;43284;47.042;15.498;2023-08-20T07:59:41;97663.47;;;23.17;89.92
57442;BME280;43284;47.042;15.498;2023-08-20T08:02:07;97660.69;;;23.19;90.13
57442;BME280;43284;47.042;15.498;2023-08-20T08:04:34;97664.88;;;23.21;88.87
57442;BME280;43284;47.042;15.498;2023-08-20T08:06:59;97657.84;;;23.30;88.93
57442;BME280;43284;47.042;15.498;2023-08-20T08:09:32;97651.97;;;23.36;88.27
57442;BME280;43284;47.042;15.498;2023-08-20T08:11:58;97653.94;;;23.44;84.91
57442;BME280;43284;47.042;15.498;2023-08-20T08:14:24;97650.81;;;23.49;85.33
57442;BME280;43284;47.042;15.498;2023-08-20T08:16:50;97655.56;;;23.55;84.34
57442;BME280;43284;47.042;15.498;2023-08-20T08:19:17;97653.03;;;23.63;86.55
57442;BME280;43284;47.042;15.498;2023-08-20T08:21:43;97650.06;;;23.76;87.71
57442;BME280;43284;47.042;15.498;2023-08-20T08:24:10;97657.19;;;23.85;88.51
57442;BME280;43284;47.042;15.498;2023-08-20T08:26:36;97658.31;;;23.92;87.90
57442;BME280;43284;47.042;15.498;2023-08-20T08:29:05;97658.13;;;24.03;87.55
57442;BME280;43284;47.042;15.498;2023-08-20T08:31:31;97659.59;;;24.16;88.60
57442;BME280;43284;47.042;15.498;2023-08-20T08:33:57;97658.44;;;24.28;86.55
57442;BME280;43284;47.042;15.498;2023-08-20T08:36:23;97658.81;;;24.33;84.02
57442;BME280;43284;47.042;15.498;2023-08-20T08:38:50;97652.75;;;24.41;80.89
57442;BME280;43284;47.042;15.498;2023-08-20T08:41:16;97651.28;;;24.46;81.69
57442;BME280;43284;47.042;15.498;2023-08-20T08:43:42;97653.63;;;24.59;82.80
57442;BME280;43284;47.042;15.498;2023-08-20T08:46:13;97651.75;;;24.70;85.30
57442;BME280;43284;47.042;15.498;2023-08-20T08:48:44;97644.78;;;24.77;83.04
57442;BME280;43284;47.042;15.498;2023-08-20T08:51:14;97654.88;;;24.83;84.91
57442;BME280;43284;47.042;15.498;2023-08-20T08:53:42;97647.22;;;24.88;83.21
57442;BME280;43284;47.042;15.498;2023-08-20T08:56:08;97661.38;;;24.98;81.54
57442;BME280;43284;47.042;15.498;2023-08-20T08:58:33;97646.03;;;25.00;76.16
57442;BME280;43284;47.042;15.498;2023-08-20T09:00:59;97646.72;;;25.02;71.42
57442;BME280;43284;47.042;15.498;2023-08-20T09:03:25;97646.25;;;25.07;67.88
57442;BME280;43284;47.042;15.498;2023-08-20T09:05:55;97640.97;;;25.15;68.24
57442;BME280;43284;47.042;15.498;2023-08-20T09:08:26;97645.56;;;25.23;68.03
57442;BME280;43284;47.042;15.498;2023-08-20T09:10:53;97646.41;;;25.41;75.47
57442;BME280;43284;47.042;15.498;2023-08-20T09:13:33;97646.91;;;25.45;71.69
57442;BME280;43284;47.042;15.498;2023-08-20T09:15:59;97649.97;;;25.50;70.53
57442;BME280;43284;47.042;15.498;2023-08-20T09:18:24;97648.00;;;25.60;69.39
57442;BME280;43284;47.042;15.498;2023-08-20T09:20:50;97644.88;;;25.65;66.23
57442;BME280;43284;47.042;15.498;2023-08-20T09:23:16;97654.66;;;25.74;68.00
57442;BME280;43284;47.042;15.498;2023-08-20T09:25:43;97657.19;;;25.84;67.78
57442;BME280;43284;47.042;15.498;2023-08-20T09:28:09;97657.44;;;25.90;65.41
57442;BME280;43284;47.042;15.498;2023-08-20T09:30:34;97662.00;;;25.98;63.76
57442;BME280;43284;47.042;15.498;2023-08-20T09:33:18;97663.19;;;26.04;63.26
57442;BME280;43284;47.042;15.498;2023-08-20T09:35:50;97655.00;;;26.05;62.91
57442;BME280;43284;47.042;15.498;2023-08-20T09:38:19;97660.09;;;26.17;64.36
57442;BME280;43284;47.042;15.498;2023-08-20T09:40:46;97663.78;;;26.16;62.53
57442;BME280;43284;47.042;15.498;2023-08-20T09:43:15;97660.13;;;26.25;60.03
57442;BME280;43284;47.042;15.498;2023-08-20T09:45:42;97660.31;;;26.31;62.71
57442;BME280;43284;47.042;15.498;2023-08-20T09:48:09;97652.47;;;26.38;63.09
57442;BME280;43284;47.042;15.498;2023-08-20T09:50:37;97655.84;;;26.48;65.22
57442;BME280;43284;47.042;15.498;2023-08-20T09:53:26;97660.56;;;26.55;63.02
57442;BME280;43284;47.042;15.498;2023-08-20T09:55:56;97652.38;;;26.56;59.64
57442;BME280;43284;47.042;15.498;2023-08-20T09:58:27;97662.31;;;26.64;61.61
57442;BME280;43284;47.042;15.498;2023-08-20T10:00:55;97656.09;;;26.71;61.51
57442;BME280;43284;47.042;15.498;2023-08-20T10:03:22;97648.22;;;26.78;60.25
57442;BME280;43284;47.042;15.498;2023-08-20T10:05:49;97657.13;;;26.87;62.42
57442;BME280;43284;47.042;15.498;2023-08-20T10:08:15;97655.81;;;26.99;61.72
57442;BME280;43284;47.042;15.498;2023-08-20T10:10:42;97654.13;;;27.06;60.71
57442;BME280;43284;47.042;15.498;2023-08-20T10:13:07;97657.50;;;27.08;58.81
57442;BME280;43284;47.042;15.498;2023-08-20T10:15:33;97653.31;;;27.14;59.81
57442;BME280;43284;47.042;15.498;2023-08-20T10:18:01;97652.34;;;27.23;56.04
57442;BME280;43284;47.042;15.498;2023-08-20T10:20:29;97651.31;;;27.24;53.01
57442;BME280;43284;47.042;15.498;2023-08-20T10:23:00;97661.22;;;27.24;55.61
57442;BME280;43284;47.042;15.498;2023-08-20T10:25:26;97656.19;;;27.21;57.00
57442;BME280;43284;47.042;15.498;2023-08-20T10:27:53;97665.41;;;27.26;57.73
57442;BME280;43284;47.042;15.498;2023-08-20T10:30:25;97669.28;;;27.32;58.08
57442;BME280;43284;47.042;15.498;2023-08-20T10:32:52;97663.94;;;27.40;57.31
57442;BME280;43284;47.042;15.498;2023-08-20T10:35:24;97663.75;;;27.42;54.58
57442;BME280;43284;47.042;15.498;2023-08-20T10:43:36;97653.00;;;27.58;53.54
57442;BME280;43284;47.042;15.498;2023-08-20T10:46:10;97656.81;;;27.64;55.35
57442;BME280;43284;47.042;15.498;2023-08-20T10:48:39;97652.63;;;27.61;53.11
57442;BME280;43284;47.042;15.498;2023-08-20T10:51:16;97660.03;;;27.67;55.65
57442;BME280;43284;47.042;15.498;2023-08-20T10:53:48;97650.97;;;27.60;51.46
57442;BME280;43284;47.042;15.498;2023-08-20T10:56:47;97655.84;;;27.65;52.09
57442;BME280;43284;47.042;15.498;2023-08-20T10:59:14;97657.50;;;27.74;54.89
57442;BME280;43284;47.042;15.498;2023-08-20T11:01:44;97650.94;;;27.77;52.24
57442;BME280;43284;47.042;15.498;2023-08-20T11:04:10;97647.41;;;27.84;52.64
57442;BME280;43284;47.042;15.498;2023-08-20T11:06:36;97652.41;;;28.04;55.46
57442;BME280;43284;47.042;15.498;2023-08-20T11:09:03;97648.66;;;28.21;54.31
57442;BME280;43284;47.042;15.498;2023-08-20T11:11:31;97647.09;;;28.35;53.52
57442;BME280;43284;47.042;15.498;2023-08-20T11:14:05;97641.84;;;28.50;55.11
57442;BME280;43284;47.042;15.498;2023-08-20T11:16:34;97647.19;;;28.58;52.39
57442;BME280;43284;47.042;15.498;2023-08-20T11:19:00;97641.25;;;28.63;53.31
57442;BME280;43284;47.042;15.498;2023-08-20T11:21:27;97639.03;;;28.66;52.55
57442;BME280;43284;47.042;15.498;2023-08-20T11:23:54;97646.56;;;28.71;52.74
57442;BME280;43284;47.042;15.498;2023-08-20T11:26:20;97638.16;;;28.74;50.81
57442;BME280;43284;47.042;15.498;2023-08-20T11:28:46;97639.13;;;28.81;50.31
57442;BME280;43284;47.042;15.498;2023-08-20T11:31:12;97630.22;;;28.81;50.18
57442;BME280;43284;47.042;15.498;2023-08-20T11:33:37;97625.50;;;28.83;49.85
57442;BME280;43284;47.042;15.498;2023-08-20T11:36:05;97628.84;;;28.85;50.25
57442;BME280;43284;47.042;15.498;2023-08-20T11:38:31;97621.59;;;28.85;49.87
57442;BME280;43284;47.042;15.498;2023-08-20T11:41:00;97621.31;;;28.80;47.50
57442;BME280;43284;47.042;15.498;2023-08-20T11:43:29;97620.16;;;28.74;47.05
57442;BME280;43284;47.042;15.498;2023-08-20T11:45:55;97621.88;;;28.90;49.11
57442;BME280;43284;47.042;15.498;2023-08-20T11:48:21;97622.56;;;28.92;47.84
57442;BME280;43284;47.042;15.498;2023-08-20T11:50:47;97621.22;;;28.88;46.39
57442;BME280;43284;47.042;15.498;2023-08-20T11:53:12;97617.16;;;28.92;48.50
57442;BME280;43284;47.042;15.498;2023-08-20T11:55:41;97615.06;;;29.03;50.82
57442;BME280;43284;47.042;15.498;2023-08-20T11:58:14;97614.34;;;29.17;50.93
57442;BME280;43284;47.042;15.498;2023-08-20T12:00:40;97613.25;;;29.26;48.71
57442;BME280;43284;47.042;15.498;2023-08-20T12:03:05;97610.94;;;29.38;49.66
57442;BME280;43284;47.042;15.498;2023-08-20T12:05:33;97604.00;;;29.44;48.32
57442;BME280;43284;47.042;15.498;2023-08-20T12:08:02;97604.81;;;29.44;47.16
57442;BME280;43284;47.042;15.498;2023-08-20T12:10:30;97611.41;;;29.42;45.39
57442;BME280;43284;47.042;15.498;2023-08-20T12:12:57;97612.06;;;29.44;47.27
57442;BME280;43284;47.042;15.498;2023-08-20T12:15:24;97613.47;;;29.54;50.68
57442;BME280;43284;47.042;15.498;2023-08-20T12:18:00;97608.97;;;29.70;50.26
57442;BME280;43284;47.042;15.498;2023-08-20T12:20:30;97615.31;;;29.92;49.14
57442;BME280;43284;47.042;15.498;2023-08-20T12:23:03;97611.22;;;29.96;48.85
57442;BME280;43284;47.042;15.498;2023-08-20T12:25:34;97608.41;;;30.04;44.94
57442;BME280;43284;47.042;15.498;2023-08-20T12:28:01;97611.75;;;30.06;46.61
57442;BME280;43284;47.042;15.498;2023-08-20T12:30:26;97604.38;;;30.15;45.46
57442;BME280;43284;47.042;15.498;2023-08-20T12:32:52;97602.75;;;30.29;46.23
57442;BME280;43284;47.042;15.498;2023-08-20T12:35:17;97595.38;;;30.37;46.88
57442;BME280;43284;47.042;15.498;2023-08-20T12:37:43;97598.16;;;30.44;48.04
57442;BME280;43284;47.042;15.498;2023-08-20T12:40:09;97604.72;;;30.56;47.17
57442;BME280;43284;47.042;15.498;2023-08-20T12:42:37;97602.47;;;30.60;47.93
57442;BME280;43284;47.042;15.498;2023-08-20T12:45:05;97598.19;;;30.66;48.23
57442;BME280;43284;47.042;15.498;2023-08-20T12:47:31;97593.16;;;30.63;45.90
57442;BME280;43284;47.042;15.498;2023-08-20T12:49:57;97587.47;;;30.72;45.73
57442;BME280;43284;47.042;15.498;2023-08-20T12:52:22;97590.00;;;30.80;46.37
57442;BME280;43284;47.042;15.498;2023-08-20T12:54:48;97588.59;;;30.85;46.39
57442;BME280;43284;47.042;15.498;2023-08-20T12:57:13;97591.22;;;30.93;45.45
57442;BME280;43284;47.042;15.498;2023-08-20T12:59:39;97582.53;;;30.97;42.86
57442;BME280;43284;47.042;15.498;2023-08-20T13:02:05;97578.88;;;31.05;45.66